Time;durP1;ratioP1;P1;durP2;ratioP2;P2;SDS_P1;SDS_P2;PMS_P1;PMS_P2;Temp;Humidity;BMP_temperature;BMP_pressure;BME280_temperature;BME280_humidity;BME280_pressure;Samples;Min_cycle;Max_cycle;Signal;HPM_P1;HPM_P2
2021/12/05 00:21:17;;;;;;;74.22;20.60;;;3.80;99.90;;;;;;5068115;28;20082;-89
2021/12/05 00:23:59;;;;;;;80.87;22.90;;;4.10;99.90;;;;;;5052301;28;20036;-89
2021/12/05 00:26:27;;;;;;;59.83;19.38;;;4.80;99.90;;;;;;5052939;28;20040;-89
2021/12/05 00:29:09;;;;;;;56.40;18.63;;;5.00;99.90;;;;;;5051599;28;20045;-89
2021/12/05 00:31:49;;;;;;;49.30;17.98;;;4.90;99.90;;;;;;5051675;28;20047;-88
2021/12/05 00:34:38;;;;;;;52.58;18.38;;;5.30;99.90;;;;;;5051404;28;20107;-89
2021/12/05 00:37:54;;;;;;;47.90;15.88;;;5.10;99.90;;;;;;5052850;28;20124;-89
2021/12/05 00:40:30;;;;;;;39.30;14.48;;;4.70;99.90;;;;;;5069434;28;20227;-89
2021/12/05 01:01:50;;;;;;;35.33;13.00;;;4.00;99.90;;;;;;5049197;28;20056;-90
2021/12/05 01:07:12;;;;;;;35.47;12.48;;;4.70;99.90;;;;;;5048614;28;20044;-92
2021/12/05 01:09:46;;;;;;;35.65;12.80;;;4.50;99.90;;;;;;5048572;28;20049;-92
2021/12/05 01:12:30;;;;;;;39.05;14.25;;;4.70;99.90;;;;;;5048684;28;20049;-91
2021/12/05 01:15:04;;;;;;;38.53;11.90;;;5.00;99.90;;;;;;5049301;28;20040;-91
2021/12/05 01:20:22;;;;;;;34.45;11.90;;;3.60;99.90;;;;;;5048304;28;20057;-91
2021/12/05 01:22:57;;;;;;;37.28;11.85;;;4.50;99.90;;;;;;5048719;28;20045;-91
2021/12/05 01:25:34;;;;;;;32.92;10.75;;;3.80;99.90;;;;;;5048366;28;20443;-91
2021/12/05 01:28:09;;;;;;;28.27;11.15;;;4.00;99.90;;;;;;5048925;28;20045;-90
2021/12/05 01:30:46;;;;;;;26.90;9.80;;;3.80;99.90;;;;;;5048989;28;20059;-90
2021/12/05 01:33:22;;;;;;;32.75;10.38;;;3.70;99.90;;;;;;5034495;28;20045;-90
2021/12/05 01:44:42;;;;;;;23.55;9.60;;;4.60;99.90;;;;;;5051902;28;20052;-89
2021/12/05 01:47:33;;;;;;;30.77;10.48;;;3.00;99.90;;;;;;5051771;28;20136;-89
2021/12/05 02:07:52;;;;;;;25.05;9.32;;;3.60;99.90;;;;;;5071107;28;20044;-90
2021/12/05 02:09:19;;;;;;;24.58;10.30;;;4.00;99.90;;;;;;5071598;28;20064;-89
2021/12/05 02:31:04;;;;;;;20.23;10.10;;;4.20;99.90;;;;;;5071269;28;20146;-89
2021/12/05 02:33:46;;;;;;;31.33;9.77;;;3.40;99.90;;;;;;5070696;28;20408;-89
2021/12/05 02:43:48;;;;;;;24.58;9.60;;;4.10;99.90;;;;;;5053305;28;20122;-89
2021/12/05 02:46:17;;;;;;;29.63;11.27;;;4.10;99.90;;;;;;5034325;28;20045;-89
2021/12/05 02:48:44;;;;;;;26.80;10.48;;;4.00;99.90;;;;;;5049418;28;20091;-89
2021/12/05 02:51:15;;;;;;;28.77;10.90;;;4.30;99.90;;;;;;5050932;28;20045;-89
2021/12/05 02:53:54;;;;;;;23.23;10.77;;;4.30;99.90;;;;;;5050700;28;20146;-89
2021/12/05 02:56:20;;;;;;;25.63;10.13;;;4.30;99.90;;;;;;5050404;28;20110;-89
2021/12/05 02:58:51;;;;;;;23.73;10.45;;;4.80;99.90;;;;;;5050167;28;20125;-89
2021/12/05 03:01:31;;;;;;;25.00;11.13;;;4.00;99.90;;;;;;5050503;28;20037;-89
2021/12/05 03:03:58;;;;;;;33.88;10.75;;;3.90;99.90;;;;;;5049628;28;20080;-89
2021/12/05 03:06:27;;;;;;;20.98;9.75;;;4.40;99.90;;;;;;5050328;28;20040;-89
2021/12/05 03:08:59;;;;;;;25.73;10.68;;;3.60;99.90;;;;;;5034129;28;20140;-89
2021/12/05 03:11:27;;;;;;;22.48;10.48;;;4.50;99.90;;;;;;5049488;28;20045;-89
2021/12/05 03:13:53;;;;;;;24.90;10.50;;;4.70;99.90;;;;;;5050563;28;20045;-89
2021/12/05 03:16:21;;;;;;;21.10;9.85;;;3.40;99.90;;;;;;5049728;28;20053;-89
2021/12/05 03:18:47;;;;;;;33.17;11.00;;;4.70;99.90;;;;;;5032942;28;20056;-90
2021/12/05 03:21:22;;;;;;;28.15;10.63;;;4.10;99.90;;;;;;5050415;28;20041;-89
2021/12/05 03:23:52;;;;;;;26.33;10.55;;;3.60;99.90;;;;;;5049520;28;20049;-89
2021/12/05 03:26:21;;;;;;;21.20;9.50;;;4.50;99.90;;;;;;5050448;28;20043;-89
2021/12/05 03:28:50;;;;;;;24.02;10.18;;;4.50;99.90;;;;;;5033495;28;20208;-89
2021/12/05 03:31:16;;;;;;;28.90;10.55;;;3.80;99.90;;;;;;5049337;28;20389;-89
2021/12/05 03:33:42;;;;;;;26.63;10.23;;;4.80;99.90;;;;;;5049553;28;20399;-89
2021/12/05 03:36:09;;;;;;;23.60;11.38;;;3.70;99.90;;;;;;5050178;28;20037;-88
2021/12/05 03:38:36;;;;;;;32.22;10.45;;;4.50;99.90;;;;;;5049296;28;20059;-89
2021/12/05 03:41:03;;;;;;;25.35;10.13;;;4.80;99.90;;;;;;5050303;28;20045;-89
2021/12/05 03:43:30;;;;;;;21.75;10.00;;;3.70;99.90;;;;;;5049578;28;20538;-89
2021/12/05 03:45:57;;;;;;;24.65;10.48;;;4.50;99.90;;;;;;5049582;28;20044;-90
2021/12/05 03:48:26;;;;;;;26.15;9.70;;;4.60;99.90;;;;;;5048758;28;20158;-89
2021/12/05 03:50:52;;;;;;;32.95;10.38;;;4.70;99.90;;;;;;5032766;28;20053;-89
2021/12/05 03:53:19;;;;;;;33.03;10.60;;;4.10;99.90;;;;;;5048442;28;20055;-89
2021/12/05 03:55:48;;;;;;;25.33;10.57;;;4.20;99.90;;;;;;5049586;28;20083;-90
2021/12/05 03:58:15;;;;;;;27.48;10.52;;;4.70;99.90;;;;;;5049517;28;20059;-90
2021/12/05 04:00:44;;;;;;;26.15;10.55;;;4.80;99.90;;;;;;5049082;28;20045;-90
2021/12/05 04:03:14;;;;;;;30.00;10.63;;;4.60;99.90;;;;;;5048698;28;20047;-89
2021/12/05 04:05:40;;;;;;;27.30;12.27;;;3.50;99.90;;;;;;5049823;28;20047;-90
2021/12/05 04:08:10;;;;;;;28.52;11.73;;;4.80;99.90;;;;;;5050002;28;20136;-89
2021/12/05 04:10:40;;;;;;;32.50;13.13;;;3.50;99.90;;;;;;5049759;28;20083;-90
2021/12/05 04:13:15;;;;;;;30.23;12.45;;;4.50;99.90;;;;;;5048836;28;20080;-90
2021/12/05 04:15:41;;;;;;;36.40;12.88;;;3.50;99.90;;;;;;5049973;28;20045;-90
2021/12/05 04:18:07;;;;;;;33.17;13.38;;;3.60;99.90;;;;;;5047430;28;20041;-90
2021/12/05 04:20:46;;;;;;;30.75;14.05;;;3.10;99.90;;;;;;5048910;28;20051;-89
2021/12/05 04:23:12;;;;;;;35.05;15.15;;;4.50;99.90;;;;;;5049542;28;20067;-90
2021/12/05 04:25:38;;;;;;;34.88;14.52;;;3.50;99.90;;;;;;5049789;28;20061;-89
2021/12/05 04:28:09;;;;;;;34.53;15.18;;;4.10;99.90;;;;;;5048897;28;20040;-89
2021/12/05 04:30:35;;;;;;;34.55;15.18;;;3.10;99.90;;;;;;5048991;28;20045;-90
2021/12/05 04:33:01;;;;;;;47.75;16.58;;;4.00;99.90;;;;;;5048425;28;20033;-89
2021/12/05 04:35:27;;;;;;;36.95;15.18;;;3.90;99.90;;;;;;5048485;28;20136;-89
2021/12/05 04:37:53;;;;;;;41.17;15.45;;;4.00;99.90;;;;;;5048997;28;20131;-90
2021/12/05 04:40:19;;;;;;;38.33;14.95;;;4.10;99.90;;;;;;5049076;28;20431;-90
2021/12/05 04:42:45;;;;;;;35.03;15.82;;;3.40;99.90;;;;;;5048014;28;20049;-89
2021/12/05 04:45:26;;;;;;;35.90;15.38;;;4.00;99.90;;;;;;5049057;28;20041;-90
2021/12/05 04:47:54;;;;;;;39.50;16.17;;;4.30;99.90;;;;;;5048412;28;20037;-89
2021/12/05 04:50:21;;;;;;;36.40;16.10;;;4.00;99.90;;;;;;5048469;28;20059;-89
2021/12/05 04:52:47;;;;;;;38.50;17.23;;;4.40;99.90;;;;;;5031688;28;20415;-91
2021/12/05 04:55:13;;;;;;;44.28;18.25;;;4.00;99.90;;;;;;5048292;28;20045;-89
2021/12/05 04:57:41;;;;;;;44.20;17.33;;;2.80;99.90;;;;;;5048675;28;20159;-89
2021/12/05 05:00:16;;;;;;;37.70;16.98;;;3.30;99.90;;;;;;5049086;28;20087;-90
2021/12/05 05:02:42;;;;;;;38.10;18.75;;;3.30;99.90;;;;;;5048389;28;20041;-89
2021/12/05 05:05:10;;;;;;;40.25;18.38;;;3.30;99.90;;;;;;5047541;28;20064;-89
2021/12/05 05:07:39;;;;;;;40.70;16.58;;;4.10;99.90;;;;;;5047157;28;20098;-89
2021/12/05 05:10:09;;;;;;;45.92;18.90;;;3.40;99.90;;;;;;5047526;28;20156;-89
2021/12/05 05:12:35;;;;;;;42.80;18.05;;;3.40;99.90;;;;;;5048262;28;20048;-90
2021/12/05 05:15:02;;;;;;;35.47;16.88;;;3.80;99.90;;;;;;5048494;28;20531;-89
2021/12/05 05:17:28;;;;;;;45.78;17.50;;;3.90;99.90;;;;;;5047433;28;20052;-90
2021/12/05 05:19:59;;;;;;;40.75;18.00;;;3.80;99.90;;;;;;5048176;28;20045;-89
2021/12/05 05:22:46;;;;;;;40.92;16.50;;;4.20;99.90;;;;;;5047904;28;20055;-89
2021/12/05 05:43:51;;;;;;;33.38;15.85;;;4.40;99.90;;;;;;5047054;28;20051;-89
2021/12/05 05:46:23;;;;;;;36.08;15.52;;;3.40;99.90;;;;;;5047440;28;20037;-89
2021/12/05 05:48:56;;;;;;;38.38;15.05;;;3.90;99.90;;;;;;5047537;28;20053;-89
2021/12/05 05:51:22;;;;;;;36.88;13.95;;;3.20;99.90;;;;;;5047879;28;20072;-89
2021/12/05 05:53:49;;;;;;;34.22;13.65;;;3.40;99.90;;;;;;5048378;28;20091;-89
2021/12/05 05:56:21;;;;;;;34.92;14.05;;;3.20;99.90;;;;;;5031793;28;20147;-90
2021/12/05 05:58:52;;;;;;;39.33;14.10;;;4.30;99.90;;;;;;5046037;28;20515;-89
2021/12/05 06:01:22;;;;;;;30.15;14.65;;;4.50;99.90;;;;;;5047981;28;20052;-89
2021/12/05 06:03:49;;;;;;;34.78;14.52;;;3.40;99.90;;;;;;5047050;28;20052;-89
2021/12/05 06:06:16;;;;;;;46.13;14.23;;;3.90;99.90;;;;;;5047570;28;20072;-89
2021/12/05 06:08:43;;;;;;;36.25;13.40;;;4.30;99.90;;;;;;5047937;28;20045;-90
2021/12/05 06:11:24;;;;;;;28.92;13.38;;;2.90;99.90;;;;;;5031675;28;20045;-90
2021/12/05 06:13:51;;;;;;;33.13;12.55;;;3.40;99.90;;;;;;5030375;28;20087;-89
2021/12/05 06:16:17;;;;;;;32.17;12.18;;;4.60;99.90;;;;;;5031331;28;20081;-90
2021/12/05 06:18:44;;;;;;;36.50;13.35;;;4.40;99.90;;;;;;5034083;28;20066;-89
2021/12/05 06:21:10;;;;;;;27.73;12.05;;;3.90;99.90;;;;;;5034598;28;20051;-89
2021/12/05 06:23:36;;;;;;;32.22;11.43;;;3.60;99.90;;;;;;5034742;28;20084;-89
2021/12/05 06:26:04;;;;;;;29.17;11.55;;;4.40;99.90;;;;;;5035357;28;20635;-89
2021/12/05 06:28:41;;;;;;;29.77;11.23;;;3.30;99.90;;;;;;5050277;28;20049;-89
2021/12/05 06:31:23;;;;;;;30.60;10.57;;;4.20;99.90;;;;;;5035218;28;20127;-89
2021/12/05 06:37:09;;;;;;;34.65;10.68;;;3.30;99.90;;;;;;5034260;28;20136;-89
2021/12/05 06:42:08;;;;;;;27.55;10.30;;;4.30;99.90;;;;;;5034224;28;20606;-89
2021/12/05 06:47:23;;;;;;;30.73;9.48;;;3.80;99.90;;;;;;5034030;28;20045;-90
2021/12/05 06:49:51;;;;;;;26.88;9.10;;;4.20;99.90;;;;;;5033515;28;20099;-89
2021/12/05 06:52:17;;;;;;;29.45;10.07;;;4.30;99.90;;;;;;5034828;28;20110;-89
2021/12/05 06:55:09;;;;;;;26.65;8.90;;;4.00;99.90;;;;;;5033217;28;20044;-89
2021/12/05 06:57:35;;;;;;;26.60;9.15;;;3.10;99.90;;;;;;5016781;28;20057;-89
2021/12/05 07:00:05;;;;;;;26.08;8.77;;;3.20;99.90;;;;;;5034509;28;20082;-90
2021/12/05 07:02:31;;;;;;;24.92;8.80;;;3.80;99.90;;;;;;5033577;28;20485;-90
2021/12/05 07:05:32;;;;;;;30.45;9.95;;;4.10;99.90;;;;;;5033621;28;20060;-90
2021/12/05 07:07:58;;;;;;;31.95;8.30;;;2.70;99.90;;;;;;5034657;28;20502;-90
2021/12/05 07:10:25;;;;;;;29.23;9.50;;;3.60;99.90;;;;;;5046382;28;20068;-90
2021/12/05 07:21:11;;;;;;;27.90;8.80;;;3.10;99.90;;;;;;5050302;28;20053;-90
2021/12/05 07:26:42;;;;;;;31.05;9.52;;;3.80;99.90;;;;;;5049855;28;20045;-89
2021/12/05 07:40:23;;;;;;;30.67;9.52;;;3.60;99.90;;;;;;5049425;28;20049;-89
2021/12/05 07:42:51;;;;;;;32.53;9.38;;;3.90;99.90;;;;;;5033195;28;20041;-89
2021/12/05 07:45:22;;;;;;;36.15;11.02;;;3.20;99.90;;;;;;5032862;28;20060;-90
2021/12/05 07:47:51;;;;;;;32.30;10.43;;;3.10;99.90;;;;;;5050289;28;20040;-88
2021/12/05 07:50:21;;;;;;;27.00;10.25;;;4.30;99.90;;;;;;5045835;28;20131;-88
2021/12/05 07:52:51;;;;;;;29.98;9.80;;;3.90;99.90;;;;;;5034392;28;20045;-87
2021/12/05 07:55:24;;;;;;;33.65;10.02;;;3.00;99.90;;;;;;5048973;28;20049;-87
2021/12/05 07:58:14;;;;;;;32.22;10.85;;;3.30;99.90;;;;;;5067736;28;20095;-86
2021/12/05 08:16:50;;;;;;;26.50;10.85;;;3.30;99.90;;;;;;5033914;28;20060;-89
2021/12/05 08:19:17;;;;;;;30.55;10.07;;;4.10;99.90;;;;;;5014637;28;20083;-88
2021/12/05 08:21:43;;;;;;;31.92;11.90;;;3.50;99.90;;;;;;5014983;28;20057;-87
2021/12/05 08:24:09;;;;;;;26.52;11.48;;;3.30;99.90;;;;;;5015213;28;20287;-87
2021/12/05 08:26:35;;;;;;;32.50;11.55;;;4.00;99.90;;;;;;5014349;28;20041;-88
2021/12/05 08:42:24;;;;;;;25.98;12.13;;;3.50;99.90;;;;;;5039074;28;20045;-87
2021/12/05 09:20:55;;;;;;;32.50;13.65;;;4.50;99.90;;;;;;5059075;28;20405;-88
2021/12/05 09:29:03;;;;;;;33.83;13.45;;;4.70;99.90;;;;;;5055216;28;20049;-89
2021/12/05 09:39:53;;;;;;;26.67;11.73;;;3.70;99.90;;;;;;5067954;28;20056;-87
2021/12/05 10:01:26;;;;;;;200.07;102.80;;;4.40;99.90;;;;;;5052600;28;20065;-89
2021/12/05 10:06:58;;;;;;;31.98;12.45;;;3.70;99.90;;;;;;5051838;28;20045;-88
2021/12/05 10:09:59;;;;;;;33.55;13.88;;;3.70;99.90;;;;;;5028858;28;20053;-89
2021/12/05 10:15:21;;;;;;;51.38;29.17;;;3.80;99.90;;;;;;5033775;28;20045;-88
2021/12/05 10:37:51;;;;;;;32.80;13.27;;;3.90;99.90;;;;;;5045048;28;20086;-87
2021/12/05 10:40:43;;;;;;;29.10;13.80;;;4.70;99.90;;;;;;5022649;28;20132;-91
2021/12/05 10:46:49;;;;;;;30.30;13.95;;;3.90;99.90;;;;;;5078546;22;20098;-90
2021/12/05 10:49:24;;;;;;;29.02;13.55;;;3.20;99.90;;;;;;5054554;28;20055;-92
2021/12/05 10:52:03;;;;;;;25.58;13.25;;;4.00;99.90;;;;;;5078425;22;20210;-86
2021/12/05 10:54:29;;;;;;;30.38;14.30;;;3.50;99.90;;;;;;5015134;28;20720;-88
2021/12/05 10:57:03;;;;;;;31.52;14.50;;;4.00;99.90;;;;;;5024371;28;20133;-88
2021/12/05 11:00:44;;;;;;;26.35;13.07;;;3.90;99.90;;;;;;5029499;28;20049;-90
2021/12/05 11:03:44;;;;;;;31.42;14.73;;;3.50;99.90;;;;;;5016293;28;20053;-91
2021/12/05 11:06:50;;;;;;;27.88;13.40;;;4.10;99.90;;;;;;5016130;28;20041;-88
2021/12/05 11:09:27;;;;;;;30.25;13.57;;;3.80;99.90;;;;;;4990483;28;20056;-85
2021/12/05 11:12:09;;;;;;;26.92;13.00;;;4.10;99.90;;;;;;5024937;28;20448;-88
2021/12/05 11:17:37;;;;;;;32.72;14.35;;;3.50;99.90;;;;;;5010871;28;20130;-90
2021/12/05 11:20:02;;;;;;;31.55;15.10;;;3.80;99.90;;;;;;4997300;28;20083;-85
2021/12/05 11:22:33;;;;;;;32.83;15.13;;;4.40;99.90;;;;;;4992505;28;20045;-86
2021/12/05 11:25:03;;;;;;;27.58;13.43;;;5.20;99.90;;;;;;4992574;28;20049;-85
2021/12/05 11:27:29;;;;;;;20.85;12.23;;;5.40;99.90;;;;;;5016122;28;20053;-84
2021/12/05 11:30:09;;;;;;;25.95;13.02;;;4.30;99.90;;;;;;5034563;28;20507;-84
2021/12/05 11:32:39;;;;;;;29.02;13.10;;;4.40;99.90;;;;;;5008596;28;20509;-84
2021/12/05 11:35:21;;;;;;;29.38;12.73;;;5.60;99.90;;;;;;5024187;28;20463;-84
2021/12/05 11:37:51;;;;;;;27.15;13.43;;;4.40;99.90;;;;;;5007765;28;20148;-83
2021/12/05 11:40:17;;;;;;;50.33;26.10;;;4.50;99.90;;;;;;4992143;28;20049;-84
2021/12/05 11:42:54;;;;;;;30.88;15.85;;;4.50;99.90;;;;;;5033767;28;20559;-84
2021/12/05 11:45:20;;;;;;;33.53;14.68;;;4.60;99.90;;;;;;5022781;28;20053;-84
2021/12/05 11:47:51;;;;;;;26.50;13.35;;;4.60;99.90;;;;;;5007708;28;20050;-85
2021/12/05 11:50:29;;;;;;;27.35;13.10;;;4.80;99.90;;;;;;5006810;28;20061;-85
2021/12/05 11:52:55;;;;;;;32.15;14.00;;;4.70;99.90;;;;;;5013624;28;20054;-87
2021/12/05 11:55:24;;;;;;;37.50;15.20;;;4.80;99.90;;;;;;5008705;28;20088;-87
2021/12/05 11:57:51;;;;;;;27.63;13.55;;;4.90;99.90;;;;;;5007581;28;20152;-86
2021/12/05 12:00:19;;;;;;;25.15;13.45;;;5.70;99.90;;;;;;5008825;28;20045;-88
2021/12/05 12:02:46;;;;;;;25.77;12.77;;;5.00;99.90;;;;;;5012011;28;20041;-88
2021/12/05 12:05:21;;;;;;;26.25;12.30;;;5.00;99.90;;;;;;5019255;28;20045;-87
2021/12/05 12:08:02;;;;;;;25.10;11.98;;;5.00;99.90;;;;;;5036365;28;20091;-88
2021/12/05 12:10:48;;;;;;;25.75;11.80;;;5.10;99.90;;;;;;5011636;28;20079;-88
2021/12/05 12:13:24;;;;;;;23.95;10.48;;;4.40;99.90;;;;;;5008366;28;20397;-88
2021/12/05 12:16:02;;;;;;;26.65;12.35;;;5.10;99.90;;;;;;5008472;28;20466;-88
2021/12/05 12:18:32;;;;;;;23.10;12.60;;;5.10;99.90;;;;;;5027117;28;20049;-89
2021/12/05 12:21:03;;;;;;;24.77;12.10;;;5.10;99.90;;;;;;5029436;28;20044;-89
2021/12/05 12:24:03;;;;;;;21.85;11.88;;;5.10;99.90;;;;;;5008329;28;20501;-88
2021/12/05 12:26:38;;;;;;;27.52;12.20;;;5.30;99.90;;;;;;5024463;28;20605;-88
2021/12/05 12:29:11;;;;;;;26.42;12.43;;;5.30;99.90;;;;;;5029056;28;20155;-88
2021/12/05 12:31:40;;;;;;;23.75;11.73;;;5.30;99.90;;;;;;5013499;28;20045;-88
2021/12/05 12:34:11;;;;;;;22.35;11.05;;;5.30;99.90;;;;;;5015281;28;20041;-88
2021/12/05 12:36:39;;;;;;;32.42;16.83;;;5.40;99.90;;;;;;5019510;28;20141;-88
2021/12/05 12:39:22;;;;;;;24.17;12.57;;;5.60;99.90;;;;;;5014573;28;20171;-88
2021/12/05 12:42:15;;;;;;;;;;;;;;;;;;;;;
2021/12/05 12:45:13;;;;;;;29.45;12.10;;;4.90;99.90;;;;;;5039651;28;20497;-88
2021/12/05 12:48:02;;;;;;;23.70;10.77;;;5.60;99.90;;;;;;5025693;28;20453;-87
2021/12/05 12:51:07;;;;;;;24.60;10.02;;;5.60;99.90;;;;;;5011302;28;20087;-87
2021/12/05 12:53:38;;;;;;;25.70;11.88;;;5.20;99.90;;;;;;5060376;22;20044;-87
2021/12/05 12:56:55;;;;;;;21.48;10.43;;;5.60;99.90;;;;;;5045096;28;20098;-89
2021/12/05 13:05:33;;;;;;;;;;;;;;;;;;;;;
2021/12/05 13:11:01;;;;;;;18.52;9.20;;;5.50;99.90;;;;;;4978792;28;20867;-86
2021/12/05 13:13:45;;;;;;;18.90;9.25;;;5.50;99.90;;;;;;4960473;28;20107;-86
2021/12/05 13:18:54;;;;;;;17.05;9.30;;;5.40;99.90;;;;;;5012768;28;20332;-85
2021/12/05 13:21:33;;;;;;;20.67;9.60;;;5.40;99.90;;;;;;5006253;28;20060;-87
2021/12/05 13:24:17;;;;;;;19.85;9.30;;;5.40;99.90;;;;;;4980588;28;20383;-87
2021/12/05 13:26:43;;;;;;;20.50;9.25;;;5.40;99.90;;;;;;4984047;28;20076;-88
2021/12/05 13:29:25;;;;;;;20.38;9.52;;;5.40;99.90;;;;;;4977869;28;20052;-86
2021/12/05 13:32:21;;;;;;;18.15;9.52;;;5.40;99.90;;;;;;4980904;28;20099;-89
2021/12/05 13:35:19;;;;;;;18.63;9.35;;;5.20;99.90;;;;;;4973402;28;20248;-89
2021/12/05 13:37:58;;;;;;;21.48;9.48;;;5.50;99.90;;;;;;4970969;28;20093;-94
2021/12/05 13:40:41;;;;;;;21.33;8.38;;;5.50;99.90;;;;;;5012084;28;20089;-95
2021/12/05 13:43:29;;;;;;;20.23;8.07;;;5.50;99.90;;;;;;4992621;28;20045;-94
2021/12/05 13:45:57;;;;;;;18.33;9.10;;;6.60;99.90;;;;;;5006452;28;20057;-95
2021/12/05 13:48:27;;;;;;;20.88;8.75;;;5.40;99.90;;;;;;4988286;28;20541;-93
2021/12/05 13:51:05;;;;;;;17.08;8.75;;;5.80;99.90;;;;;;4992122;28;20056;-94
2021/12/05 13:56:53;;;;;;;22.70;9.75;;;5.40;99.90;;;;;;5006084;28;20104;-93
2021/12/05 14:08:09;;;;;;;20.65;10.40;;;5.20;99.90;;;;;;5525318;23;20054;-93
2021/12/05 14:10:53;;;;;;;23.35;10.40;;;5.10;99.90;;;;;;5098995;23;20068;-90
2021/12/05 14:13:21;;;;;;;24.60;11.30;;;6.10;99.90;;;;;;4966691;28;20055;-89
2021/12/05 14:16:12;;;;;;;26.58;11.65;;;5.10;99.90;;;;;;4967759;28;20688;-89
2021/12/05 14:18:37;;;;;;;23.10;10.90;;;4.40;99.90;;;;;;4948451;28;20050;-89
2021/12/05 14:21:31;;;;;;;25.38;12.52;;;6.00;99.90;;;;;;4942858;28;20047;-89
2021/12/05 14:24:02;;;;;;;25.13;12.13;;;5.00;99.90;;;;;;4956922;28;20050;-90
2021/12/05 14:26:39;;;;;;;24.10;12.43;;;6.10;99.90;;;;;;4940373;28;20051;-90
2021/12/05 14:29:46;;;;;;;26.58;13.23;;;4.90;99.90;;;;;;4966001;23;20053;-90
2021/12/05 14:32:21;;;;;;;23.17;12.68;;;5.30;99.90;;;;;;4964538;28;20050;-90
2021/12/05 14:34:59;;;;;;;31.20;13.68;;;4.80;99.90;;;;;;4963305;28;20077;-90
2021/12/05 14:37:28;;;;;;;29.77;13.80;;;4.80;99.90;;;;;;4964790;28;20050;-90
2021/12/05 14:40:05;;;;;;;23.88;13.02;;;4.80;99.90;;;;;;4979560;28;20050;-89
2021/12/05 14:42:33;;;;;;;22.35;12.40;;;4.70;99.90;;;;;;4955899;28;20112;-89
2021/12/05 14:45:04;;;;;;;29.15;13.18;;;4.70;99.90;;;;;;4941101;28;20510;-90
2021/12/05 14:47:35;;;;;;;26.08;12.02;;;4.70;99.90;;;;;;4956413;28;20038;-89
2021/12/05 14:50:15;;;;;;;28.15;13.23;;;4.70;99.90;;;;;;4957203;28;20120;-89
2021/12/05 14:52:43;;;;;;;25.25;12.52;;;4.60;99.90;;;;;;4956979;28;20078;-89
2021/12/05 14:55:11;;;;;;;29.08;12.82;;;5.30;99.90;;;;;;4972716;28;20125;-90
2021/12/05 14:57:51;;;;;;;31.67;14.32;;;4.60;99.90;;;;;;4973823;28;20108;-92
2021/12/05 15:00:21;;;;;;;28.95;13.65;;;4.60;99.90;;;;;;4957610;28;20132;-90
2021/12/05 15:02:47;;;;;;;32.30;13.57;;;4.60;99.90;;;;;;4952115;28;20046;-91
2021/12/05 15:05:33;;;;;;;25.90;13.02;;;4.60;99.90;;;;;;4961993;28;20042;-91
2021/12/05 15:08:20;;;;;;;29.30;14.43;;;4.90;99.90;;;;;;4970648;23;20042;-90
2021/12/05 15:11:11;;;;;;;29.25;12.43;;;4.60;99.90;;;;;;4946792;28;20059;-92
2021/12/05 15:13:38;;;;;;;30.92;13.57;;;4.50;99.90;;;;;;4945847;28;20122;-90
2021/12/05 15:16:16;;;;;;;29.45;13.95;;;5.30;99.90;;;;;;4975186;28;20837;-90
2021/12/05 15:18:45;;;;;;;29.67;13.30;;;4.50;99.90;;;;;;4982929;28;20039;-89
2021/12/05 15:21:11;;;;;;;28.42;13.70;;;4.40;99.90;;;;;;4979359;28;20042;-89
2021/12/05 15:23:41;;;;;;;29.40;13.50;;;4.40;99.90;;;;;;4976824;28;20073;-88
2021/12/05 15:26:07;;;;;;;24.35;13.55;;;4.50;99.90;;;;;;4941673;28;20038;-89
2021/12/05 15:28:35;;;;;;;27.75;14.35;;;4.40;99.90;;;;;;4975630;28;20046;-88
2021/12/05 15:31:08;;;;;;;30.27;15.05;;;4.40;99.90;;;;;;4966503;28;20042;-88
2021/12/05 15:33:34;;;;;;;35.08;15.52;;;4.40;99.90;;;;;;4974632;28;20046;-88
2021/12/05 15:36:02;;;;;;;39.00;15.88;;;4.40;99.90;;;;;;4939618;28;20046;-86
2021/12/05 15:38:30;;;;;;;43.00;16.00;;;4.40;99.90;;;;;;4971751;28;20049;-87
2021/12/05 15:41:13;;;;;;;34.03;16.40;;;5.50;99.90;;;;;;4942073;28;20078;-87
2021/12/05 15:43:41;;;;;;;34.40;16.35;;;4.40;99.90;;;;;;4950072;28;20050;-87
2021/12/05 15:46:11;;;;;;;34.90;16.20;;;4.40;99.90;;;;;;4988604;28;20042;-88
2021/12/05 15:48:37;;;;;;;38.78;16.88;;;4.40;99.90;;;;;;4957948;28;20042;-88
2021/12/05 15:51:09;;;;;;;38.22;18.15;;;5.40;99.90;;;;;;4974403;28;20499;-88
2021/12/05 15:53:36;;;;;;;34.63;17.52;;;4.40;99.90;;;;;;4942781;28;20054;-87
2021/12/05 15:56:10;;;;;;;38.35;18.55;;;4.40;99.90;;;;;;4989304;28;20046;-88
2021/12/05 15:58:42;;;;;;;36.45;17.75;;;4.30;99.90;;;;;;4975228;28;20058;-88
2021/12/05 16:01:23;;;;;;;39.30;18.02;;;4.30;99.90;;;;;;4958106;28;20039;-87
2021/12/05 16:03:51;;;;;;;36.72;17.90;;;4.30;99.90;;;;;;4958932;28;20149;-88
2021/12/05 16:06:29;;;;;;;39.80;20.00;;;4.30;99.90;;;;;;4971026;28;20129;-88
2021/12/05 16:09:07;;;;;;;44.20;22.60;;;5.10;99.90;;;;;;4952481;28;20077;-87
2021/12/05 16:11:33;;;;;;;41.30;19.52;;;4.20;99.90;;;;;;4950738;28;20073;-87
2021/12/05 16:13:58;;;;;;;41.42;21.38;;;4.20;99.90;;;;;;4949043;28;20485;-87
2021/12/05 16:16:28;;;;;;;34.40;18.60;;;4.80;99.90;;;;;;4966998;28;20375;-88
2021/12/05 16:19:00;;;;;;;34.53;19.77;;;4.20;99.90;;;;;;4949113;28;20050;-87
2021/12/05 16:21:36;;;;;;;37.83;21.13;;;4.20;99.90;;;;;;4951672;28;20245;-87
2021/12/05 16:24:20;;;;;;;38.17;19.70;;;3.80;99.90;;;;;;4949507;28;20516;-87
2021/12/05 16:27:04;;;;;;;41.17;21.38;;;4.90;99.90;;;;;;4981989;28;20049;-87
2021/12/05 16:29:39;;;;;;;40.58;18.67;;;4.10;99.90;;;;;;4965031;28;20100;-87
2021/12/05 16:32:20;;;;;;;39.88;20.73;;;4.00;99.90;;;;;;4949951;28;20050;-88
2021/12/05 16:34:52;;;;;;;39.60;21.27;;;3.70;99.90;;;;;;4949787;28;20047;-87
2021/12/05 16:37:30;;;;;;;35.67;20.80;;;4.50;99.90;;;;;;4950185;28;20053;-89
2021/12/05 16:44:00;;;;;;;;;;;;;;;;;;;;;
2021/12/05 16:51:33;;;;;;;;;;;;;;;;;;;;;
2021/12/05 16:59:54;;;;;;;;;;;;;;;;;;;;;
2021/12/05 17:02:51;;;;;;;47.15;25.50;;;4.40;99.90;;;;;;4977582;28;20053;-88
2021/12/05 17:05:35;;;;;;;46.92;24.98;;;4.10;99.90;;;;;;4981303;28;20494;-86
2021/12/05 17:08:19;;;;;;;45.53;23.98;;;3.80;99.90;;;;;;4981642;28;20629;-86
2021/12/05 17:10:48;;;;;;;44.97;21.45;;;3.90;99.90;;;;;;4965769;28;20409;-86
2021/12/05 17:13:33;;;;;;;36.03;21.40;;;3.90;99.90;;;;;;4980560;28;20060;-86
2021/12/05 17:16:03;;;;;;;37.75;22.10;;;3.90;99.90;;;;;;4977385;28;20038;-85
2021/12/05 17:18:43;;;;;;;39.05;21.95;;;3.80;99.90;;;;;;4943121;28;20100;-86
2021/12/05 17:21:14;;;;;;;37.42;21.88;;;3.80;99.90;;;;;;4973362;28;20101;-85
2021/12/05 17:24:01;;;;;;;34.13;20.75;;;4.20;99.90;;;;;;4931282;28;20047;-86
2021/12/05 17:26:36;;;;;;;39.17;22.35;;;3.70;99.90;;;;;;4931502;28;20047;-85
2021/12/05 17:29:22;;;;;;;38.45;21.27;;;3.70;99.90;;;;;;4931161;28;20048;-85
2021/12/05 17:32:06;;;;;;;39.58;20.38;;;4.00;99.90;;;;;;4943127;28;20498;-86
2021/12/05 17:34:37;;;;;;;36.67;20.58;;;3.70;99.90;;;;;;4929239;28;20098;-86
2021/12/05 17:37:21;;;;;;;35.95;19.60;;;3.60;99.90;;;;;;4932224;28;20120;-85
2021/12/05 17:39:48;;;;;;;31.40;19.05;;;4.80;99.90;;;;;;4931328;28;20054;-86
2021/12/05 17:42:22;;;;;;;32.28;20.02;;;4.70;99.90;;;;;;4930280;28;20046;-86
2021/12/05 17:44:52;;;;;;;32.83;19.20;;;3.50;99.90;;;;;;4931091;28;20312;-86
2021/12/05 17:47:18;;;;;;;32.05;19.38;;;4.60;99.90;;;;;;4932148;28;20081;-85
2021/12/05 17:49:48;;;;;;;36.13;19.35;;;3.50;99.90;;;;;;4945994;28;20118;-86
2021/12/05 17:52:16;;;;;;;30.85;19.17;;;4.80;99.90;;;;;;4931229;28;20073;-86
2021/12/05 17:55:00;;;;;;;32.45;19.05;;;3.50;99.90;;;;;;4931490;28;20066;-87
2021/12/05 17:57:35;;;;;;;24.40;16.48;;;3.50;99.90;;;;;;5564382;23;20037;-96
2021/12/05 18:00:15;;;;;;;23.50;16.05;;;3.40;99.90;;;;;;4953947;28;20082;-96
2021/12/05 18:02:53;;;;;;;24.23;16.40;;;3.40;99.90;;;;;;4961870;28;20035;-96
2021/12/05 18:08:54;;;;;;;26.23;15.43;;;3.30;99.90;;;;;;5103680;23;20085;-92
2021/12/05 18:11:23;;;;;;;25.55;16.05;;;4.00;99.90;;;;;;4925225;28;20062;-96
2021/12/05 18:13:53;;;;;;;27.00;16.35;;;3.30;99.90;;;;;;4985429;28;20038;-96
2021/12/05 18:19:17;;;;;;;25.13;16.23;;;3.20;99.90;;;;;;5020096;22;20057;-96
2021/12/05 18:22:21;;;;;;;25.85;16.60;;;3.30;99.90;;;;;;5142155;23;20063;-95
2021/12/05 18:25:09;;;;;;;27.33;16.90;;;3.30;99.90;;;;;;4947285;28;20648;-96
2021/12/05 18:27:36;;;;;;;27.98;17.52;;;3.30;99.90;;;;;;5028017;23;20534;-96
2021/12/05 18:30:08;;;;;;;29.35;18.23;;;3.00;99.90;;;;;;4990522;28;20053;-96
2021/12/05 18:32:51;;;;;;;26.38;16.70;;;3.30;99.90;;;;;;4994981;28;20052;-96
2021/12/05 18:35:28;;;;;;;28.50;18.00;;;3.30;99.90;;;;;;5000451;28;20057;-96
2021/12/05 18:38:13;;;;;;;26.10;17.67;;;3.90;99.90;;;;;;5126806;23;20082;-96
2021/12/05 18:40:43;;;;;;;31.10;17.75;;;3.50;99.90;;;;;;4960701;28;20058;-85